createdAt,value
2019-02-05T00:01:24.005Z,466.52
2019-02-05T00:03:53.144Z,465.65
2019-02-05T00:06:22.253Z,466.73
2019-02-05T00:08:50.947Z,467.60
2019-02-05T00:11:19.712Z,477.25
2019-02-05T00:13:48.512Z,472.95
2019-02-05T00:16:17.243Z,485.20
2019-02-05T00:18:45.932Z,482.80
2019-02-05T00:21:15.040Z,491.12
2019-02-05T00:23:43.756Z,488.90
2019-02-05T00:26:12.584Z,492.60
2019-02-05T00:28:41.296Z,505.27
2019-02-05T00:31:09.992Z,505.10
2019-02-05T00:33:38.688Z,515.98
2019-02-05T00:36:07.408Z,507.58
2019-02-05T00:38:36.167Z,520.08
2019-02-05T00:41:04.872Z,529.27
2019-02-05T00:43:33.583Z,524.77
2019-02-05T00:46:02.462Z,536.05
2019-02-05T00:48:31.231Z,581.85
2019-02-05T00:51:00.265Z,683.67
2019-02-05T00:53:29.068Z,689.97
2019-02-05T00:55:57.782Z,673.50
2019-02-05T00:58:26.918Z,655.98
2019-02-05T01:00:55.641Z,631.17
2019-02-05T01:03:24.374Z,639.15
2019-02-05T01:05:53.074Z,641.27
2019-02-05T01:08:22.169Z,641.52
2019-02-05T01:10:50.861Z,636.30
2019-02-05T01:13:19.926Z,630.48
2019-02-05T01:15:48.627Z,634.37
2019-02-05T01:18:17.613Z,628.30
2019-02-05T01:20:46.877Z,633.98
2019-02-05T01:23:15.684Z,628.33
2019-02-05T01:25:44.380Z,628.50
2019-02-05T01:28:13.073Z,624.00
2019-02-05T01:30:41.791Z,613.95
2019-02-05T01:33:10.578Z,621.87
2019-02-05T01:35:39.369Z,607.25
2019-02-05T01:38:08.345Z,596.90
2019-02-05T01:40:37.030Z,611.42
2019-02-05T01:43:05.741Z,607.58
2019-02-05T01:45:34.438Z,605.03
2019-02-05T01:48:03.175Z,600.77
2019-02-05T01:50:31.954Z,602.50
2019-02-05T01:53:01.240Z,588.00
2019-02-05T01:55:30.006Z,604.70
2019-02-05T01:57:58.736Z,590.73
2019-02-05T02:00:30.763Z,584.22
2019-02-05T02:03:00.287Z,583.67
2019-02-05T02:05:29.009Z,584.98
2019-02-05T02:07:58.093Z,573.97
2019-02-05T02:10:28.053Z,575.98
2019-02-05T02:12:56.794Z,579.25
2019-02-05T02:15:25.502Z,563.80
2019-02-05T02:17:54.233Z,580.13
2019-02-05T02:20:22.994Z,572.27
2019-02-05T02:22:51.731Z,561.88
2019-02-05T02:25:20.467Z,564.90
2019-02-05T02:27:49.735Z,568.02
2019-02-05T02:30:30.901Z,561.73
2019-02-05T02:32:59.982Z,545.15
2019-02-05T02:35:28.702Z,548.80
2019-02-05T02:37:57.447Z,547.63
2019-02-05T02:40:26.191Z,546.90
2019-02-05T02:42:54.912Z,538.30
2019-02-05T02:45:24.001Z,545.20
2019-02-05T02:47:52.921Z,533.87
2019-02-05T02:50:22.294Z,539.45
2019-02-05T02:52:51.274Z,543.67
2019-02-05T02:55:20.025Z,545.85
2019-02-05T02:57:48.813Z,537.33
2019-02-05T03:00:18.926Z,528.05
2019-02-05T03:02:47.734Z,529.83
2019-02-05T03:05:18.903Z,526.85
2019-02-05T03:07:48.108Z,526.52
2019-02-05T03:10:19.253Z,524.40
2019-02-05T03:12:47.899Z,519.88
2019-02-05T03:15:16.841Z,518.70
2019-02-05T03:17:45.662Z,504.98
2019-02-05T03:20:14.413Z,518.42
2019-02-05T03:22:45.365Z,503.82
2019-02-05T03:25:14.094Z,514.73
2019-02-05T03:27:42.983Z,500.50
2019-02-05T03:30:17.887Z,495.25
2019-02-05T03:32:47.043Z,505.52
2019-02-05T03:35:16.643Z,501.67
2019-02-05T03:37:45.355Z,488.30
2019-02-05T03:41:02.026Z,501.82
2019-02-05T03:43:30.883Z,500.55
2019-02-05T03:46:00.269Z,504.80
2019-02-05T03:48:28.964Z,527.02
2019-02-05T03:51:06.355Z,545.15
2019-02-05T03:53:35.881Z,554.25
2019-02-05T03:56:46.707Z,570.35
2019-02-05T03:59:48.204Z,582.25
2019-02-05T04:02:58.644Z,594.08
2019-02-05T04:05:49.446Z,592.17
2019-02-05T04:08:53.663Z,601.35
2019-02-05T04:11:35.300Z,602.10
2019-02-05T04:14:42.596Z,604.08
2019-02-05T04:17:59.439Z,602.65
2019-02-05T04:20:55.433Z,596.25
2019-02-05T04:24:00.249Z,599.52
2019-02-05T04:27:05.602Z,600.65
2019-02-05T04:30:05.945Z,597.65
2019-02-05T04:33:06.524Z,597.30
2019-02-05T04:36:18.710Z,556.17
2019-02-05T04:39:16.426Z,476.63
2019-02-05T04:42:29.710Z,475.80
2019-02-05T04:45:17.326Z,461.10
2019-02-05T04:48:13.640Z,451.90
2019-02-05T04:51:03.561Z,445.00
2019-02-05T04:54:04.003Z,401.10
2019-02-05T04:56:56.597Z,422.45
2019-02-05T05:00:06.780Z,443.02
2019-02-05T05:03:33.859Z,449.85
2019-02-05T05:06:36.237Z,447.85
2019-02-05T05:09:36.850Z,456.05
2019-02-05T05:12:05.564Z,462.98
2019-02-05T05:14:34.273Z,454.00
2019-02-05T05:17:03.687Z,463.70
2019-02-05T05:19:33.154Z,462.92
2019-02-05T05:22:01.899Z,471.10
2019-02-05T05:24:30.577Z,461.05
2019-02-05T05:26:59.283Z,462.60
2019-02-05T05:29:27.971Z,450.75
2019-02-05T05:31:56.857Z,463.05
2019-02-05T05:34:25.566Z,457.47
2019-02-05T05:36:53.044Z,453.50
2019-02-05T05:39:21.756Z,453.67
2019-02-05T05:41:50.479Z,440.60
2019-02-05T05:44:19.182Z,453.52
2019-02-05T05:46:47.897Z,449.48
2019-02-05T05:49:16.615Z,452.97
2019-02-05T05:51:45.339Z,446.77
2019-02-05T05:54:14.351Z,448.32
2019-02-05T05:56:43.063Z,458.07
2019-02-05T05:59:11.756Z,446.55
2019-02-05T06:01:43.458Z,428.95
2019-02-05T06:04:12.542Z,324.12
2019-02-05T06:06:41.554Z,309.15
2019-02-05T06:09:10.249Z,293.40
2019-02-05T06:11:39.140Z,314.42
2019-02-05T06:14:07.905Z,318.85
2019-02-05T06:16:36.756Z,335.45
2019-02-05T06:19:05.467Z,339.30
2019-02-05T06:21:34.464Z,334.20
2019-02-05T06:24:03.444Z,340.23
2019-02-05T06:26:32.147Z,334.80
2019-02-05T06:29:00.855Z,330.87
2019-02-05T06:31:29.940Z,326.60
2019-02-05T06:33:58.635Z,326.32
2019-02-05T06:36:27.351Z,322.07
2019-02-05T06:38:56.057Z,324.50
2019-02-05T06:41:24.785Z,319.35
2019-02-05T06:43:53.811Z,321.52
2019-02-05T06:46:22.521Z,310.13
2019-02-05T06:48:51.214Z,321.95
2019-02-05T06:51:20.243Z,325.73
2019-02-05T06:53:49.363Z,318.48
2019-02-05T06:56:18.425Z,315.02
2019-02-05T06:58:47.432Z,319.32
2019-02-05T07:01:16.132Z,310.85
2019-02-05T07:03:44.840Z,311.70
2019-02-05T07:06:13.610Z,310.75
2019-02-05T07:08:42.672Z,304.90
2019-02-05T07:11:11.528Z,309.18
2019-02-05T07:13:40.986Z,303.88
2019-02-05T07:16:09.698Z,313.18
2019-02-05T07:18:38.528Z,305.92
2019-02-05T07:21:07.226Z,302.20
2019-02-05T07:23:35.983Z,300.73
2019-02-05T07:26:04.655Z,301.65
2019-02-05T07:28:33.368Z,303.32
2019-02-05T07:31:02.352Z,295.40
2019-02-05T07:33:31.061Z,302.05
2019-02-05T07:35:59.865Z,291.85
2019-02-05T07:38:28.602Z,299.50
2019-02-05T07:40:57.293Z,298.65
2019-02-05T07:43:26.007Z,281.90
2019-02-05T07:45:54.752Z,292.35
2019-02-05T07:48:23.729Z,299.73
2019-02-05T07:50:52.423Z,285.05
2019-02-05T07:53:21.139Z,287.85
2019-02-05T07:55:49.860Z,290.48
2019-02-05T07:58:18.549Z,303.88
2019-02-05T08:00:47.247Z,328.88
2019-02-05T08:03:15.952Z,321.90
2019-02-05T08:05:44.638Z,332.15
2019-02-05T08:08:13.899Z,335.82
2019-02-05T08:10:42.626Z,342.87
2019-02-05T08:13:11.314Z,334.35
2019-02-05T08:15:40.104Z,336.50
2019-02-05T08:18:08.832Z,329.07
2019-02-05T08:20:37.552Z,326.42
2019-02-05T08:23:06.564Z,329.15
2019-02-05T08:25:35.509Z,332.40
2019-02-05T08:28:04.426Z,319.00
2019-02-05T08:30:35.933Z,322.35
2019-02-05T08:33:04.665Z,318.67
2019-02-05T08:35:33.385Z,320.17
2019-02-05T08:38:02.093Z,306.07
2019-02-05T08:40:30.797Z,316.75
2019-02-05T08:42:59.500Z,302.95
2019-02-05T08:45:29.045Z,309.83
2019-02-05T08:47:57.761Z,314.55
2019-02-05T08:50:27.578Z,311.75
2019-02-05T08:52:56.273Z,301.52
2019-02-05T08:55:25.047Z,300.82
2019-02-05T08:57:55.018Z,290.38
2019-02-05T09:00:29.482Z,311.43
2019-02-05T09:02:58.892Z,304.63
2019-02-05T09:05:27.613Z,294.85
2019-02-05T09:07:56.296Z,294.62
2019-02-05T09:10:27.521Z,293.88
2019-02-05T09:12:56.467Z,290.77
2019-02-05T09:15:29.585Z,281.68
2019-02-05T09:17:55.666Z,285.25
2019-02-05T09:20:24.386Z,278.30
2019-02-05T09:22:53.160Z,294.40
2019-02-05T09:25:22.149Z,296.70
2019-02-05T09:27:50.843Z,288.52
2019-02-05T09:30:21.493Z,291.20
2019-02-05T09:32:51.802Z,285.90
2019-02-05T09:35:20.563Z,276.82
2019-02-05T09:37:49.674Z,275.98
2019-02-05T09:40:23.424Z,276.98
2019-02-05T09:42:52.252Z,275.77
2019-02-05T09:45:21.173Z,269.10
2019-02-05T09:47:50.748Z,276.00
2019-02-05T09:50:19.507Z,267.80
2019-02-05T09:52:48.225Z,269.90
2019-02-05T09:55:16.971Z,265.48
2019-02-05T09:57:45.697Z,259.65
2019-02-05T10:00:17.410Z,252.50
2019-02-05T10:02:46.109Z,257.92
2019-02-05T10:05:16.401Z,258.80
2019-02-05T10:07:45.174Z,256.85
2019-02-05T10:10:15.151Z,254.03
2019-02-05T10:12:46.908Z,249.60
2019-02-05T10:15:19.424Z,245.75
2019-02-05T10:17:48.145Z,243.60
2019-02-05T10:20:17.391Z,244.20
2019-02-05T10:22:46.156Z,243.80
2019-02-05T10:25:15.132Z,246.65
2019-02-05T10:27:43.891Z,244.45
2019-02-05T10:30:16.726Z,243.40
2019-02-05T10:32:46.073Z,244.82
2019-02-05T10:35:14.810Z,227.60
2019-02-05T10:37:43.537Z,234.70
2019-02-05T10:40:12.329Z,235.17
2019-02-05T10:42:43.944Z,240.95
2019-02-05T10:45:12.086Z,230.65
2019-02-05T10:47:40.988Z,240.62
2019-02-05T10:50:11.281Z,234.27
2019-02-05T10:52:40.480Z,226.25
2019-02-05T10:55:11.193Z,234.25
2019-02-05T10:57:40.045Z,234.95
2019-02-05T11:00:15.126Z,230.30
2019-02-05T11:02:44.211Z,219.45
2019-02-05T11:05:15.172Z,220.97
2019-02-05T11:07:44.204Z,231.43
2019-02-05T11:10:13.522Z,222.00
2019-02-05T11:12:42.204Z,219.80
2019-02-05T11:15:13.332Z,216.82
2019-02-05T11:17:42.298Z,222.33
2019-02-05T11:20:14.145Z,223.18
2019-02-05T11:22:43.132Z,219.55
2019-02-05T11:25:11.962Z,223.10
2019-02-05T11:27:40.755Z,219.62
2019-02-05T11:30:20.285Z,220.78
2019-02-05T11:32:44.467Z,212.85
2019-02-05T11:35:13.252Z,218.57
2019-02-05T11:37:41.976Z,209.18
2019-02-05T11:40:13.125Z,212.38
2019-02-05T11:42:41.851Z,214.10
2019-02-05T11:45:12.110Z,214.38
2019-02-05T11:47:40.859Z,218.48
2019-02-05T11:50:11.053Z,212.48
2019-02-05T11:52:39.739Z,206.17
2019-02-05T11:55:10.975Z,210.32
2019-02-05T11:57:39.707Z,220.25
2019-02-05T12:00:12.205Z,208.00
2019-02-05T12:02:40.995Z,207.22
2019-02-05T12:05:09.756Z,213.72
2019-02-05T12:07:38.862Z,195.20
2019-02-05T12:10:09.937Z,196.93
2019-02-05T12:12:38.874Z,202.95
2019-02-05T12:15:08.885Z,211.18
2019-02-05T12:17:37.673Z,201.70
2019-02-05T12:20:08.611Z,200.82
2019-02-05T12:22:37.340Z,199.20
2019-02-05T12:25:08.629Z,206.02
2019-02-05T12:27:38.090Z,206.70
2019-02-05T12:30:10.698Z,195.32
2019-02-05T12:32:39.411Z,193.60
2019-02-05T12:35:08.450Z,191.15
2019-02-05T12:37:37.141Z,191.43
2019-02-05T12:40:06.887Z,195.50
2019-02-05T12:42:35.984Z,198.95
2019-02-05T12:45:06.499Z,193.05
2019-02-05T12:47:35.219Z,194.37
2019-02-05T12:50:04.678Z,195.43
2019-02-05T12:52:33.754Z,198.00
2019-02-05T12:55:12.692Z,195.57
2019-02-05T12:57:33.212Z,194.17
2019-02-05T13:00:05.705Z,197.82
2019-02-05T13:02:34.399Z,194.55
2019-02-05T13:05:03.773Z,193.13
2019-02-05T13:07:32.484Z,200.40
2019-02-05T13:10:01.670Z,194.62
2019-02-05T13:12:30.562Z,204.72
2019-02-05T13:15:00.459Z,205.70
2019-02-05T13:17:29.201Z,216.55
2019-02-05T13:19:57.975Z,216.93
2019-02-05T13:22:26.724Z,215.45
2019-02-05T13:24:55.467Z,206.20
2019-02-05T13:27:24.181Z,203.32
2019-02-05T13:29:53.239Z,199.02
2019-02-05T13:32:21.947Z,209.25
2019-02-05T13:34:50.673Z,208.85
2019-02-05T13:37:19.552Z,205.92
2019-02-05T13:39:48.276Z,201.95
2019-02-05T13:42:17.076Z,201.12
2019-02-05T13:44:46.201Z,206.87
2019-02-05T13:47:17.746Z,208.05
2019-02-05T13:49:46.836Z,202.50
2019-02-05T13:52:15.943Z,204.28
2019-02-05T13:54:44.653Z,207.40
2019-02-05T13:57:13.370Z,209.37
2019-02-05T13:59:42.315Z,206.65
2019-02-05T14:02:11.055Z,206.53
2019-02-05T14:04:39.883Z,205.65
2019-02-05T14:07:08.796Z,203.47
2019-02-05T14:09:37.509Z,202.93
2019-02-05T14:12:06.237Z,197.13
2019-02-05T14:14:35.250Z,202.18
2019-02-05T14:17:03.977Z,201.88
2019-02-05T14:19:32.934Z,202.53
2019-02-05T14:22:01.617Z,205.55
2019-02-05T14:24:30.244Z,204.63
2019-02-05T14:26:59.093Z,204.53
2019-02-05T14:29:28.115Z,199.07
2019-02-05T14:31:56.939Z,205.40
2019-02-05T14:34:25.618Z,205.67
2019-02-05T14:36:54.219Z,196.50
2019-02-05T14:39:23.344Z,196.18
2019-02-05T14:41:51.996Z,195.62
2019-02-05T14:44:20.587Z,194.07
2019-02-05T14:46:49.737Z,196.90
2019-02-05T14:49:18.506Z,189.28
2019-02-05T14:51:47.525Z,195.80
2019-02-05T14:54:16.239Z,191.47
2019-02-05T14:56:44.903Z,184.82
2019-02-05T14:59:13.552Z,180.55
2019-02-05T15:01:43.425Z,185.55
2019-02-05T15:04:12.209Z,181.28
2019-02-05T15:06:40.822Z,186.45
2019-02-05T15:09:09.539Z,187.18
2019-02-05T15:11:38.166Z,181.95
2019-02-05T15:14:06.883Z,183.05
2019-02-05T15:16:35.535Z,180.05
2019-02-05T15:19:17.145Z,186.03
2019-02-05T15:21:45.855Z,185.82
2019-02-05T15:24:14.495Z,179.68
2019-02-05T15:26:43.138Z,180.03
2019-02-05T15:29:12.072Z,180.20
2019-02-05T15:31:40.720Z,178.68
2019-02-05T15:34:22.150Z,169.87
2019-02-05T15:36:51.527Z,170.47
2019-02-05T15:39:20.251Z,169.47
2019-02-05T15:41:48.899Z,174.57
2019-02-05T15:44:17.530Z,178.90
2019-02-05T15:46:46.207Z,175.47
2019-02-05T15:49:14.814Z,173.07
2019-02-05T15:51:43.709Z,173.47
2019-02-05T15:54:12.331Z,169.53
2019-02-05T15:56:41.049Z,173.35
2019-02-05T15:59:10.050Z,171.32
2019-02-05T16:01:38.713Z,171.57
2019-02-05T16:04:08.128Z,166.30
2019-02-05T16:06:36.815Z,170.10
2019-02-05T16:09:08.245Z,172.85
2019-02-05T16:11:36.997Z,170.57
2019-02-05T16:14:06.027Z,170.53
2019-02-05T16:16:34.673Z,173.20
2019-02-05T16:19:03.466Z,171.80
2019-02-05T16:21:32.276Z,169.68
2019-02-05T16:24:00.972Z,167.37
2019-02-05T16:26:29.722Z,170.85
2019-02-05T16:28:58.354Z,173.82
2019-02-05T16:31:28.011Z,169.35
2019-02-05T16:33:56.745Z,167.25
2019-02-05T16:36:25.421Z,166.82
2019-02-05T16:38:55.797Z,176.70
2019-02-05T16:41:24.467Z,171.60
2019-02-05T16:43:53.132Z,162.72
2019-02-05T16:46:21.945Z,169.93
2019-02-05T16:48:50.686Z,170.70
2019-02-05T16:51:19.342Z,162.70
2019-02-05T16:53:48.024Z,162.12
2019-02-05T16:56:17.947Z,172.13
2019-02-05T16:58:46.789Z,183.70
2019-02-05T17:01:15.839Z,188.55
2019-02-05T17:03:44.509Z,196.07
2019-02-05T17:06:14.881Z,202.18
2019-02-05T17:08:43.647Z,207.83
2019-02-05T17:11:12.305Z,212.10
2019-02-05T17:13:40.948Z,211.12
2019-02-05T17:16:09.850Z,216.88
2019-02-05T17:18:38.769Z,224.58
2019-02-05T17:21:07.388Z,217.20
2019-02-05T17:23:36.025Z,210.10
2019-02-05T17:26:04.927Z,210.08
2019-02-05T17:28:33.537Z,211.95
2019-02-05T17:31:02.185Z,208.35
2019-02-05T17:33:30.966Z,211.05
2019-02-05T17:36:02.657Z,208.72
2019-02-05T17:38:31.278Z,210.32
2019-02-05T17:40:59.958Z,208.28
2019-02-05T17:43:29.131Z,206.72
2019-02-05T17:45:57.854Z,209.37
2019-02-05T17:48:26.696Z,213.57
2019-02-05T17:50:55.459Z,212.72
2019-02-05T17:53:24.226Z,209.50
2019-02-05T17:55:53.182Z,214.08
2019-02-05T17:58:23.591Z,195.18
2019-02-05T18:00:56.206Z,174.07
2019-02-05T18:03:24.855Z,169.07
2019-02-05T18:05:54.159Z,174.60
2019-02-05T18:08:22.889Z,173.40
2019-02-05T18:10:51.538Z,175.27
2019-02-05T18:13:20.453Z,176.40
2019-02-05T18:15:49.755Z,172.22
2019-02-05T18:18:18.796Z,173.28
2019-02-05T18:20:48.136Z,172.68
2019-02-05T18:23:16.842Z,175.72
2019-02-05T18:25:45.462Z,170.53
2019-02-05T18:28:14.073Z,170.97
2019-02-05T18:30:42.661Z,168.25
2019-02-05T18:33:11.723Z,166.28
2019-02-05T18:35:40.341Z,165.60
2019-02-05T18:38:11.368Z,165.37
2019-02-05T18:40:39.936Z,164.77
2019-02-05T18:43:08.528Z,164.77
2019-02-05T18:45:37.516Z,161.43
2019-02-05T18:48:06.499Z,163.97
2019-02-05T18:50:35.126Z,164.90
2019-02-05T18:53:03.750Z,162.27
2019-02-05T18:55:32.730Z,162.50
2019-02-05T18:58:08.924Z,163.12
2019-02-05T19:00:33.687Z,160.28
2019-02-05T19:03:02.314Z,163.07
2019-02-05T19:05:31.172Z,160.55
2019-02-05T19:08:00.051Z,161.00
2019-02-05T19:10:28.731Z,159.18
2019-02-05T19:12:57.349Z,156.22
2019-02-05T19:15:30.626Z,159.63
2019-02-05T19:17:59.235Z,158.87
2019-02-05T19:20:29.422Z,160.18
2019-02-05T19:22:58.020Z,157.32
2019-02-05T19:25:43.370Z,158.55
2019-02-05T19:28:18.989Z,156.20
2019-02-05T19:30:48.477Z,154.78
2019-02-05T19:33:26.763Z,157.25
2019-02-05T19:35:47.850Z,155.10
2019-02-05T19:38:16.472Z,153.53
2019-02-05T19:40:45.096Z,154.47
2019-02-05T19:43:13.854Z,156.18
2019-02-05T19:45:55.047Z,154.32
2019-02-05T19:48:45.574Z,154.57
2019-02-05T19:51:16.143Z,155.07
2019-02-05T19:53:44.611Z,157.67
2019-02-05T19:56:14.618Z,155.50
2019-02-05T19:58:43.844Z,154.70
2019-02-05T20:01:13.041Z,155.37
2019-02-05T20:03:42.037Z,154.75
2019-02-05T20:06:12.925Z,153.35
2019-02-05T20:08:42.701Z,153.07
2019-02-05T20:11:11.886Z,153.93
2019-02-05T20:13:41.496Z,152.90
2019-02-05T20:16:10.239Z,155.37
2019-02-05T20:18:39.210Z,152.50
2019-02-05T20:21:08.004Z,149.30
2019-02-05T20:23:36.699Z,150.78
2019-02-05T20:26:05.345Z,153.82
2019-02-05T20:28:35.099Z,152.27
2019-02-05T20:31:03.922Z,148.45
2019-02-05T20:33:32.602Z,153.25
2019-02-05T20:36:01.430Z,151.95
2019-02-05T20:38:30.092Z,152.75
2019-02-05T20:40:58.813Z,148.95
2019-02-05T20:43:27.519Z,153.97
2019-02-05T20:45:56.995Z,152.22
2019-02-05T20:48:25.883Z,153.32
2019-02-05T20:50:54.778Z,152.87
2019-02-05T20:53:23.889Z,148.62
2019-02-05T20:55:53.006Z,153.70
2019-02-05T20:58:21.689Z,160.10
2019-02-05T21:00:50.586Z,163.97
2019-02-05T21:03:19.815Z,179.18
2019-02-05T21:05:48.782Z,191.05
2019-02-05T21:08:17.936Z,204.85
2019-02-05T21:10:46.578Z,221.10
2019-02-05T21:13:15.871Z,227.97
2019-02-05T21:15:44.620Z,228.45
2019-02-05T21:18:13.366Z,242.03
2019-02-05T21:20:42.412Z,247.73
2019-02-05T21:23:11.034Z,266.90
2019-02-05T21:25:39.841Z,282.45
2019-02-05T21:28:08.512Z,281.13
2019-02-05T21:30:37.160Z,291.27
2019-02-05T21:33:05.816Z,292.18
2019-02-05T21:35:34.477Z,298.57
2019-02-05T21:38:03.097Z,298.40
2019-02-05T21:40:31.845Z,301.52
2019-02-05T21:43:00.788Z,298.95
2019-02-05T21:45:29.499Z,329.45
2019-02-05T21:47:58.144Z,347.50
2019-02-05T21:50:26.799Z,357.83
2019-02-05T21:52:55.448Z,366.05
2019-02-05T21:55:24.312Z,387.68
2019-02-05T21:57:52.985Z,396.82
2019-02-05T22:00:26.562Z,376.23
2019-02-05T22:02:55.220Z,402.52
2019-02-05T22:05:24.128Z,391.42
2019-02-05T22:07:52.807Z,396.57
2019-02-05T22:10:21.857Z,419.50
2019-02-05T22:12:50.499Z,428.73
2019-02-05T22:15:19.593Z,422.25
2019-02-05T22:17:48.299Z,424.05
2019-02-05T22:20:18.863Z,427.10
2019-02-05T22:22:47.879Z,424.85
2019-02-05T22:25:21.879Z,433.90
2019-02-05T22:27:50.910Z,428.38
2019-02-05T22:30:21.669Z,452.47
2019-02-05T22:32:50.521Z,469.32
2019-02-05T22:35:19.526Z,495.38
2019-02-05T22:37:48.520Z,511.45
2019-02-05T22:40:19.217Z,514.20
2019-02-05T22:42:48.220Z,506.07
2019-02-05T22:45:17.105Z,505.22
2019-02-05T22:47:45.925Z,523.50
2019-02-05T22:50:19.729Z,528.80
2019-02-05T22:52:48.623Z,530.98
2019-02-05T22:55:17.314Z,535.37
2019-02-05T22:57:46.407Z,532.33
2019-02-05T23:00:48.222Z,534.15
2019-02-05T23:03:20.047Z,569.23
2019-02-05T23:06:19.105Z,579.50
2019-02-05T23:08:47.876Z,587.90
2019-02-05T23:12:16.568Z,599.50
2019-02-05T23:14:47.762Z,602.17
2019-02-05T23:17:16.551Z,610.90
2019-02-05T23:19:45.252Z,600.80
2019-02-05T23:22:14.004Z,608.53
2019-02-05T23:24:42.655Z,608.60
2019-02-05T23:27:11.380Z,603.05
2019-02-05T23:29:40.378Z,599.20
2019-02-05T23:32:09.143Z,608.42
2019-02-05T23:34:37.884Z,613.60
2019-02-05T23:37:06.926Z,616.73
2019-02-05T23:39:35.574Z,630.27
2019-02-05T23:42:04.756Z,623.73
2019-02-05T23:44:33.383Z,627.08
2019-02-05T23:47:02.100Z,625.40
2019-02-05T23:49:30.847Z,615.15
2019-02-05T23:51:59.508Z,613.52
2019-02-05T23:54:28.166Z,624.27
2019-02-05T23:56:56.808Z,623.33
2019-02-05T23:59:25.478Z,659.70
